createdAt,value
2023-03-10T00:01:45.906Z,61.56
2023-03-10T00:04:15.140Z,61.39
2023-03-10T00:06:43.922Z,61.56
2023-03-10T00:09:12.823Z,61.54
2023-03-10T00:11:41.541Z,61.54
2023-03-10T00:14:10.345Z,61.48
2023-03-10T00:16:39.131Z,61.23
2023-03-10T00:19:08.078Z,61.49
2023-03-10T00:21:36.911Z,61.27
2023-03-10T00:24:05.816Z,61.03
2023-03-10T00:26:34.565Z,61.25
2023-03-10T00:29:03.217Z,61.44
2023-03-10T00:31:33.032Z,61.44
2023-03-10T00:34:02.329Z,61.22
2023-03-10T00:36:32.689Z,61.39
2023-03-10T00:39:02.125Z,61.04
2023-03-10T00:41:37.150Z,60.80
2023-03-10T00:44:10.024Z,60.65
2023-03-10T00:46:40.359Z,60.62
2023-03-10T00:49:11.213Z,60.43
2023-03-10T00:51:39.944Z,60.27
2023-03-10T00:54:08.796Z,59.87
2023-03-10T00:56:37.528Z,59.75
2023-03-10T00:59:07.493Z,59.17
2023-03-10T01:01:40.734Z,58.10
2023-03-10T01:04:13.878Z,57.74
2023-03-10T01:06:45.040Z,57.91
2023-03-10T01:09:14.684Z,56.47
2023-03-10T01:11:43.426Z,56.06
2023-03-10T01:14:14.763Z,55.54
2023-03-10T01:16:44.187Z,56.39
2023-03-10T01:19:13.083Z,56.40
2023-03-10T01:21:43.470Z,54.92
2023-03-10T01:24:16.393Z,52.87
2023-03-10T01:26:45.171Z,53.14
2023-03-10T01:29:14.270Z,52.38
2023-03-10T01:31:43.045Z,52.28
2023-03-10T01:34:11.832Z,52.65
2023-03-10T01:36:42.990Z,51.73
2023-03-10T01:39:11.803Z,51.66
2023-03-10T01:41:42.806Z,51.12
2023-03-10T01:44:18.388Z,51.18
2023-03-10T01:46:55.510Z,50.27
2023-03-10T01:49:41.117Z,50.05
2023-03-10T01:52:18.188Z,51.01
2023-03-10T01:55:07.675Z,49.67
2023-03-10T01:57:47.144Z,49.83
2023-03-10T02:00:18.068Z,48.98
2023-03-10T02:03:15.754Z,47.90
2023-03-10T02:05:59.747Z,46.72
2023-03-10T02:08:36.148Z,46.51
2023-03-10T02:11:06.301Z,46.01
2023-03-10T02:13:35.070Z,45.40
2023-03-10T02:16:04.229Z,44.20
2023-03-10T02:18:33.463Z,44.61
2023-03-10T02:21:02.176Z,44.22
2023-03-10T02:24:08.141Z,44.90
2023-03-10T02:27:06.249Z,45.09
2023-03-10T02:30:01.453Z,43.30
2023-03-10T02:32:38.118Z,43.81
2023-03-10T02:35:07.996Z,43.22
2023-03-10T02:37:44.623Z,42.46
2023-03-10T02:40:40.984Z,43.48
2023-03-10T02:43:20.085Z,44.06
2023-03-10T02:45:54.525Z,44.12
2023-03-10T02:48:35.839Z,44.68
2023-03-10T02:51:14.229Z,43.59
2023-03-10T02:53:43.475Z,42.13
2023-03-10T02:56:13.555Z,40.17
2023-03-10T02:58:44.871Z,39.64
2023-03-10T03:01:14.868Z,41.77
2023-03-10T03:03:45.337Z,41.71
2023-03-10T03:06:14.937Z,40.67
2023-03-10T03:08:43.958Z,39.60
2023-03-10T03:11:16.905Z,40.51
2023-03-10T03:13:46.254Z,40.71
2023-03-10T03:16:15.356Z,40.01
2023-03-10T03:18:46.022Z,40.88
2023-03-10T03:21:17.879Z,41.28
2023-03-10T03:23:48.537Z,41.01
2023-03-10T03:26:22.686Z,40.41
2023-03-10T03:28:54.788Z,39.68
2023-03-10T03:31:27.923Z,38.49
2023-03-10T03:34:25.551Z,40.56
2023-03-10T03:36:58.284Z,40.53
2023-03-10T03:39:32.796Z,40.38
2023-03-10T03:42:05.077Z,40.51
2023-03-10T03:44:43.473Z,40.59
2023-03-10T03:47:13.258Z,39.73
2023-03-10T03:49:42.275Z,40.71
2023-03-10T03:52:13.021Z,41.44
2023-03-10T03:54:42.000Z,40.82
2023-03-10T03:57:10.773Z,38.61
2023-03-10T03:59:39.686Z,37.59
2023-03-10T04:02:08.919Z,37.63
2023-03-10T04:04:38.074Z,37.35
2023-03-10T04:07:07.722Z,37.51
2023-03-10T04:09:38.905Z,38.25
2023-03-10T04:12:09.282Z,37.75
2023-03-10T04:14:39.380Z,38.36
2023-03-10T04:17:09.280Z,38.09
2023-03-10T04:19:39.540Z,36.64
2023-03-10T04:22:11.619Z,37.05
2023-03-10T04:24:41.621Z,38.27
2023-03-10T04:27:12.010Z,37.38
2023-03-10T04:29:41.649Z,38.18
2023-03-10T04:32:10.911Z,38.44
2023-03-10T04:34:42.378Z,37.92
2023-03-10T04:37:12.918Z,38.20
2023-03-10T04:39:41.995Z,38.51
2023-03-10T04:42:11.330Z,39.57
2023-03-10T04:44:40.154Z,39.85
2023-03-10T04:47:09.232Z,38.45
2023-03-10T04:49:39.156Z,38.63
2023-03-10T04:52:12.355Z,38.91
2023-03-10T04:54:41.472Z,39.61
2023-03-10T04:57:10.291Z,39.39
2023-03-10T04:59:39.717Z,39.61
2023-03-10T05:02:12.422Z,39.38
2023-03-10T05:04:43.492Z,39.12
2023-03-10T05:07:12.709Z,39.98
2023-03-10T05:09:47.544Z,39.01
2023-03-10T05:12:16.857Z,38.73
2023-03-10T05:14:45.760Z,38.73
2023-03-10T05:17:15.400Z,38.92
2023-03-10T05:19:50.872Z,38.12
2023-03-10T05:22:20.084Z,38.51
2023-03-10T05:24:53.654Z,38.50
2023-03-10T05:27:25.429Z,38.17
2023-03-10T05:29:54.822Z,38.18
2023-03-10T05:32:27.418Z,38.08
2023-03-10T05:34:56.800Z,38.72
2023-03-10T05:37:27.672Z,38.73
2023-03-10T05:40:01.197Z,39.25
2023-03-10T05:42:31.946Z,39.46
2023-03-10T05:45:00.956Z,39.04
2023-03-10T05:47:32.191Z,38.76
2023-03-10T05:50:02.656Z,37.66
2023-03-10T05:52:32.340Z,38.11
2023-03-10T05:55:01.165Z,37.52
2023-03-10T05:57:31.644Z,37.03
2023-03-10T06:00:00.535Z,36.86
2023-03-10T06:02:32.696Z,35.79
2023-03-10T06:05:01.918Z,36.39
2023-03-10T06:07:31.988Z,36.34
2023-03-10T06:10:00.940Z,34.98
2023-03-10T06:12:34.131Z,35.53
2023-03-10T06:15:04.206Z,36.25
2023-03-10T06:17:32.999Z,36.59
2023-03-10T06:20:02.606Z,37.53
2023-03-10T06:22:32.160Z,37.69
2023-03-10T06:25:01.108Z,38.22
2023-03-10T06:27:31.768Z,37.91
2023-03-10T06:30:01.304Z,36.96
2023-03-10T06:32:31.828Z,36.72
2023-03-10T06:35:00.875Z,37.73
2023-03-10T06:37:32.073Z,38.61
2023-03-10T06:40:01.112Z,38.80
2023-03-10T06:42:33.069Z,39.12
2023-03-10T06:45:01.866Z,38.75
2023-03-10T06:47:32.673Z,39.29
2023-03-10T06:50:02.709Z,38.89
2023-03-10T06:52:33.950Z,38.71
2023-03-10T06:55:03.788Z,39.37
2023-03-10T06:57:32.847Z,40.01
2023-03-10T07:00:01.667Z,39.44
2023-03-10T07:02:32.582Z,39.59
2023-03-10T07:05:01.626Z,39.80
2023-03-10T07:07:31.313Z,39.99
2023-03-10T07:10:00.217Z,40.21
2023-03-10T07:12:28.964Z,39.51
2023-03-10T07:14:57.855Z,38.67
2023-03-10T07:17:27.286Z,39.04
2023-03-10T07:19:56.055Z,38.35
2023-03-10T07:22:24.836Z,36.81
2023-03-10T07:24:57.073Z,35.68
2023-03-10T07:27:25.875Z,36.13
2023-03-10T07:29:54.594Z,36.30
2023-03-10T07:32:23.428Z,35.52
2023-03-10T07:34:52.957Z,35.17
2023-03-10T07:37:21.759Z,34.69
2023-03-10T07:39:50.660Z,34.55
2023-03-10T07:42:19.348Z,35.80
2023-03-10T07:44:48.437Z,34.82
2023-03-10T07:47:17.353Z,35.51
2023-03-10T07:49:47.361Z,35.13
2023-03-10T07:52:17.173Z,35.24
2023-03-10T07:54:46.534Z,36.26
2023-03-10T07:57:16.374Z,37.37
2023-03-10T07:59:45.168Z,36.79
2023-03-10T08:02:16.269Z,35.96
2023-03-10T08:04:45.429Z,34.75
2023-03-10T08:07:14.243Z,34.62
2023-03-10T08:09:43.161Z,34.76
2023-03-10T08:12:11.974Z,34.72
2023-03-10T08:14:40.673Z,35.24
2023-03-10T08:17:09.440Z,34.12
2023-03-10T08:19:39.546Z,32.75
2023-03-10T08:22:08.443Z,33.24
2023-03-10T08:24:40.442Z,34.18
2023-03-10T08:27:09.415Z,35.53
2023-03-10T08:29:38.967Z,35.86
2023-03-10T08:32:08.204Z,35.85
2023-03-10T08:34:37.028Z,35.15
2023-03-10T08:37:06.189Z,34.06
2023-03-10T08:39:35.178Z,32.42
2023-03-10T08:42:04.335Z,32.48
2023-03-10T08:44:33.279Z,32.89
2023-03-10T08:47:02.377Z,32.04
2023-03-10T08:49:31.077Z,31.91
2023-03-10T08:52:00.716Z,32.99
2023-03-10T08:54:32.381Z,33.75
2023-03-10T08:57:01.980Z,33.81
2023-03-10T08:59:30.845Z,33.74
2023-03-10T09:02:00.501Z,34.34
2023-03-10T09:04:29.716Z,34.90
2023-03-10T09:06:58.482Z,35.63
2023-03-10T09:09:27.368Z,35.76
2023-03-10T09:11:56.159Z,36.70
2023-03-10T09:14:24.977Z,36.84
2023-03-10T09:16:53.927Z,37.02
2023-03-10T09:19:22.675Z,37.28
2023-03-10T09:21:51.589Z,37.30
2023-03-10T09:24:20.540Z,37.81
2023-03-10T09:26:49.270Z,37.88
2023-03-10T09:29:18.255Z,38.16
2023-03-10T09:31:48.862Z,38.47
2023-03-10T09:34:17.718Z,38.81
2023-03-10T09:37:11.528Z,38.86
2023-03-10T09:39:40.326Z,39.11
2023-03-10T09:42:09.530Z,39.39
2023-03-10T09:45:14.628Z,39.52
2023-03-10T09:48:05.044Z,39.36
2023-03-10T09:50:43.137Z,40.03
2023-03-10T09:53:22.528Z,39.95
2023-03-10T09:55:51.693Z,40.06
2023-03-10T09:58:40.389Z,40.50
2023-03-10T10:01:18.307Z,40.78
2023-03-10T10:03:53.463Z,40.73
2023-03-10T10:06:38.311Z,40.98
2023-03-10T10:09:42.811Z,41.07
2023-03-10T10:12:17.374Z,41.21
2023-03-10T10:14:56.597Z,41.19
2023-03-10T10:17:52.922Z,41.48
2023-03-10T10:20:40.783Z,41.76
2023-03-10T10:23:30.314Z,41.98
2023-03-10T10:26:09.425Z,41.95
2023-03-10T10:28:50.928Z,42.05
2023-03-10T10:31:29.029Z,42.41
2023-03-10T10:34:19.830Z,42.39
2023-03-10T10:36:55.775Z,42.49
2023-03-10T10:39:43.461Z,42.53
2023-03-10T10:42:26.639Z,42.88
2023-03-10T10:45:01.428Z,42.97
2023-03-10T10:47:36.883Z,42.90
2023-03-10T10:50:18.685Z,43.21
2023-03-10T10:52:51.161Z,43.02
2023-03-10T10:55:29.871Z,43.31
2023-03-10T10:58:01.806Z,43.37
2023-03-10T11:00:40.378Z,43.63
2023-03-10T11:03:30.107Z,43.65
2023-03-10T11:06:01.470Z,43.66
2023-03-10T11:08:39.190Z,43.97
2023-03-10T11:11:30.100Z,44.14
2023-03-10T11:14:37.252Z,44.04
2023-03-10T11:17:27.893Z,43.97
2023-03-10T11:20:26.319Z,44.40
2023-03-10T11:23:10.240Z,44.46
2023-03-10T11:25:51.197Z,44.57
2023-03-10T11:28:32.015Z,44.57
2023-03-10T11:31:29.173Z,44.49
2023-03-10T11:34:15.371Z,44.79
2023-03-10T11:36:55.988Z,44.43
2023-03-10T11:39:31.925Z,44.52
2023-03-10T11:42:09.954Z,44.83
2023-03-10T11:44:42.076Z,44.91
2023-03-10T11:47:41.493Z,45.15
2023-03-10T11:50:29.257Z,45.08
2023-03-10T11:53:13.161Z,45.19
2023-03-10T11:55:43.727Z,45.22
2023-03-10T11:58:48.217Z,45.44
2023-03-10T12:01:26.388Z,45.23
2023-03-10T12:04:22.639Z,45.36
2023-03-10T12:07:14.043Z,45.42
2023-03-10T12:09:54.969Z,45.58
2023-03-10T12:12:44.482Z,45.71
2023-03-10T12:15:22.844Z,45.94
2023-03-10T12:17:54.302Z,45.64
2023-03-10T12:20:23.335Z,45.92
2023-03-10T12:22:58.010Z,46.13
2023-03-10T12:25:30.374Z,46.08
2023-03-10T12:28:17.523Z,46.10
2023-03-10T12:31:08.486Z,46.03
2023-03-10T12:33:41.822Z,46.15
2023-03-10T12:36:25.223Z,46.16
2023-03-10T12:39:28.668Z,46.45
2023-03-10T12:42:02.380Z,46.46
2023-03-10T12:44:55.868Z,46.32
2023-03-10T12:47:44.032Z,46.35
2023-03-10T12:50:20.952Z,46.35
2023-03-10T12:53:15.904Z,46.41
2023-03-10T12:55:45.164Z,46.58
2023-03-10T12:58:24.104Z,46.48
2023-03-10T13:01:05.195Z,46.76
2023-03-10T13:03:35.883Z,46.89
2023-03-10T13:06:14.122Z,46.82
2023-03-10T13:09:05.405Z,46.88
2023-03-10T13:11:42.622Z,46.91
2023-03-10T13:14:14.891Z,47.04
2023-03-10T13:16:56.189Z,47.25
2023-03-10T13:19:28.174Z,47.23
2023-03-10T13:21:57.524Z,47.38
2023-03-10T13:24:36.549Z,47.32
2023-03-10T13:27:20.431Z,47.54
2023-03-10T13:30:03.675Z,47.44
2023-03-10T13:32:34.201Z,47.35
2023-03-10T13:35:24.336Z,47.88
2023-03-10T13:38:19.837Z,47.66
2023-03-10T13:40:50.509Z,47.66
2023-03-10T13:43:42.641Z,47.79
2023-03-10T13:46:31.366Z,47.56
2023-03-10T13:49:07.322Z,47.71
2023-03-10T13:51:39.416Z,47.91
2023-03-10T13:54:27.839Z,47.88
2023-03-10T13:57:22.552Z,47.88
2023-03-10T13:59:58.325Z,48.05
2023-03-10T14:02:33.426Z,47.98
2023-03-10T14:05:03.528Z,48.07
2023-03-10T14:07:38.575Z,48.05
2023-03-10T14:10:08.583Z,48.00
2023-03-10T14:12:50.157Z,48.31
2023-03-10T14:15:29.620Z,48.37
2023-03-10T14:18:07.775Z,48.39
2023-03-10T14:20:43.791Z,48.04
2023-03-10T14:23:27.012Z,48.34
2023-03-10T14:25:57.637Z,48.37
2023-03-10T14:28:33.980Z,48.15
2023-03-10T14:31:04.943Z,48.46
2023-03-10T14:33:33.750Z,48.04
2023-03-10T14:36:02.587Z,48.41
2023-03-10T14:38:32.001Z,48.52
2023-03-10T14:41:00.912Z,48.57
2023-03-10T14:43:30.198Z,48.63
2023-03-10T14:46:06.497Z,48.73
2023-03-10T14:48:40.365Z,48.53
2023-03-10T14:51:25.614Z,48.52
2023-03-10T14:54:01.601Z,48.75
2023-03-10T14:56:32.151Z,48.96
2023-03-10T14:59:02.910Z,49.12
2023-03-10T15:01:32.311Z,49.04
2023-03-10T15:04:01.464Z,49.16
2023-03-10T15:06:30.547Z,49.13
2023-03-10T15:09:00.652Z,49.24
2023-03-10T15:11:37.030Z,48.87
2023-03-10T15:14:15.155Z,48.98
2023-03-10T15:16:46.988Z,49.03
2023-03-10T15:19:22.653Z,49.22
2023-03-10T15:21:51.596Z,49.26
2023-03-10T15:24:20.946Z,49.08
2023-03-10T15:26:49.982Z,49.01
2023-03-10T15:29:21.298Z,49.22
2023-03-10T15:31:50.495Z,49.30
2023-03-10T15:34:20.614Z,49.31
2023-03-10T15:36:49.631Z,49.32
2023-03-10T15:39:30.732Z,49.33
2023-03-10T15:42:01.050Z,49.56
2023-03-10T15:44:29.885Z,49.26
2023-03-10T15:46:58.787Z,49.39
2023-03-10T15:49:27.701Z,49.31
2023-03-10T15:51:56.694Z,49.37
2023-03-10T15:54:25.782Z,49.42
2023-03-10T15:56:54.545Z,49.16
2023-03-10T15:59:23.545Z,49.27
2023-03-10T16:01:53.561Z,49.74
2023-03-10T16:04:24.368Z,49.46
2023-03-10T16:06:53.240Z,49.59
2023-03-10T16:09:21.985Z,49.53
2023-03-10T16:11:50.825Z,49.55
2023-03-10T16:14:19.648Z,49.64
2023-03-10T16:16:48.516Z,49.55
2023-03-10T16:19:17.281Z,49.84
2023-03-10T16:21:46.802Z,49.62
2023-03-10T16:24:15.676Z,49.70
2023-03-10T16:26:44.984Z,49.64
2023-03-10T16:29:14.652Z,49.76
2023-03-10T16:31:43.613Z,49.83
2023-03-10T16:34:12.622Z,49.92
2023-03-10T16:36:41.977Z,49.72
2023-03-10T16:39:12.070Z,49.54
2023-03-10T16:41:40.942Z,50.11
2023-03-10T16:44:13.699Z,50.00
2023-03-10T16:46:42.554Z,50.13
2023-03-10T16:49:15.633Z,49.88
2023-03-10T16:51:46.438Z,50.02
2023-03-10T16:54:18.344Z,50.15
2023-03-10T16:56:49.441Z,49.94
2023-03-10T16:59:27.029Z,50.03
2023-03-10T17:01:56.905Z,50.48
2023-03-10T17:04:26.006Z,50.06
2023-03-10T17:06:54.928Z,50.24
2023-03-10T17:09:23.817Z,50.27
2023-03-10T17:11:55.383Z,50.29
2023-03-10T17:14:24.809Z,50.26
2023-03-10T17:16:55.963Z,50.26
2023-03-10T17:19:30.528Z,50.29
2023-03-10T17:21:59.886Z,50.17
2023-03-10T17:24:30.514Z,50.21
2023-03-10T17:26:59.613Z,50.14
2023-03-10T17:29:28.639Z,50.28
2023-03-10T17:31:57.477Z,50.07
2023-03-10T17:34:27.687Z,50.26
2023-03-10T17:36:56.489Z,50.17
2023-03-10T17:39:28.170Z,50.34
2023-03-10T17:41:57.321Z,50.65
2023-03-10T17:44:26.520Z,50.98
2023-03-10T17:46:56.886Z,50.67
2023-03-10T17:49:26.106Z,50.69
2023-03-10T17:51:54.856Z,50.54
2023-03-10T17:54:23.915Z,50.47
2023-03-10T17:56:53.006Z,50.86
2023-03-10T17:59:21.869Z,50.78
2023-03-10T18:01:51.610Z,51.04
2023-03-10T18:04:20.729Z,50.92
2023-03-10T18:06:49.486Z,50.97
2023-03-10T18:09:18.492Z,50.76
2023-03-10T18:11:47.203Z,50.84
2023-03-10T18:14:15.987Z,50.86
2023-03-10T18:16:44.826Z,51.22
2023-03-10T18:19:21.807Z,50.94
2023-03-10T18:21:51.883Z,51.05
2023-03-10T18:24:20.636Z,51.14
2023-03-10T18:26:49.486Z,50.90
2023-03-10T18:29:18.846Z,51.04
2023-03-10T18:31:47.612Z,51.06
2023-03-10T18:34:16.520Z,51.10
2023-03-10T18:36:45.687Z,51.25
2023-03-10T18:39:14.527Z,50.82
2023-03-10T18:41:43.331Z,51.07
2023-03-10T18:44:12.204Z,51.15
2023-03-10T18:46:41.396Z,51.05
2023-03-10T18:49:10.361Z,50.94
2023-03-10T18:51:39.130Z,51.05
2023-03-10T18:54:08.036Z,51.18
2023-03-10T18:56:37.457Z,51.32
2023-03-10T18:59:06.393Z,51.19
2023-03-10T19:01:36.276Z,51.31
2023-03-10T19:04:05.237Z,51.28
2023-03-10T19:06:35.424Z,51.42
2023-03-10T19:09:04.613Z,51.35
2023-03-10T19:11:37.357Z,51.21
2023-03-10T19:14:07.603Z,51.22
2023-03-10T19:16:36.543Z,50.88
2023-03-10T19:19:05.529Z,51.20
2023-03-10T19:21:38.913Z,51.18
2023-03-10T19:24:08.116Z,51.36
2023-03-10T19:26:36.960Z,51.31
2023-03-10T19:29:06.053Z,51.41
2023-03-10T19:31:35.417Z,51.29
2023-03-10T19:34:04.513Z,51.42
2023-03-10T19:36:33.800Z,51.46
2023-03-10T19:39:02.472Z,51.33
2023-03-10T19:41:31.219Z,51.28
2023-03-10T19:44:00.130Z,51.71
2023-03-10T19:46:29.203Z,51.60
2023-03-10T19:48:58.013Z,51.42
2023-03-10T19:51:28.949Z,51.56
2023-03-10T19:53:58.344Z,51.55
2023-03-10T19:56:27.397Z,51.24
2023-03-10T19:58:57.109Z,51.38
2023-03-10T20:01:27.487Z,51.48
2023-03-10T20:04:00.347Z,51.59
2023-03-10T20:06:30.113Z,51.81
2023-03-10T20:08:58.848Z,51.70
2023-03-10T20:11:28.012Z,51.63
2023-03-10T20:13:56.818Z,51.66
2023-03-10T20:16:28.148Z,51.74
2023-03-10T20:18:57.121Z,51.74
2023-03-10T20:21:27.016Z,51.88
2023-03-10T20:23:56.385Z,52.00
2023-03-10T20:26:25.419Z,51.67
2023-03-10T20:28:54.176Z,51.69
2023-03-10T20:31:24.174Z,51.67
2023-03-10T20:33:53.444Z,51.64
2023-03-10T20:36:22.232Z,51.85
2023-03-10T20:38:50.956Z,51.95
2023-03-10T20:41:22.406Z,51.53
2023-03-10T20:43:51.629Z,51.63
2023-03-10T20:46:21.116Z,51.94
2023-03-10T20:48:51.601Z,51.86
2023-03-10T20:51:20.711Z,51.97
2023-03-10T20:53:49.561Z,51.75
2023-03-10T20:56:18.439Z,52.00
2023-03-10T20:58:47.170Z,51.47
2023-03-10T21:01:22.235Z,51.86
2023-03-10T21:03:55.210Z,51.87
2023-03-10T21:06:26.039Z,51.98
2023-03-10T21:08:55.344Z,51.93
2023-03-10T21:11:24.104Z,52.02
2023-03-10T21:13:53.622Z,51.95
2023-03-10T21:16:22.419Z,51.90
2023-03-10T21:18:51.283Z,52.07
2023-03-10T21:21:20.084Z,51.93
2023-03-10T21:23:48.883Z,52.24
2023-03-10T21:26:20.839Z,52.17
2023-03-10T21:28:49.840Z,51.95
2023-03-10T21:31:19.037Z,52.01
2023-03-10T21:33:47.915Z,52.13
2023-03-10T21:36:19.778Z,52.13
2023-03-10T21:38:50.492Z,51.92
2023-03-10T21:41:24.904Z,52.22
2023-03-10T21:43:57.885Z,51.85
2023-03-10T21:46:27.676Z,52.16
2023-03-10T21:48:56.534Z,52.07
2023-03-10T21:51:26.648Z,52.06
2023-03-10T21:53:56.528Z,52.21
2023-03-10T21:56:28.758Z,52.00
2023-03-10T21:58:58.295Z,52.04
2023-03-10T22:01:28.407Z,52.28
2023-03-10T22:03:57.941Z,52.06
2023-03-10T22:06:27.224Z,52.32
2023-03-10T22:08:56.015Z,52.37
2023-03-10T22:11:24.853Z,51.96
2023-03-10T22:13:54.901Z,52.17
2023-03-10T22:16:24.194Z,51.98
2023-03-10T22:18:53.070Z,52.10
2023-03-10T22:21:22.056Z,52.05
2023-03-10T22:23:50.789Z,52.16
2023-03-10T22:26:19.529Z,52.09
2023-03-10T22:28:48.276Z,52.20
2023-03-10T22:31:17.324Z,51.98
2023-03-10T22:33:46.116Z,52.24
2023-03-10T22:36:15.274Z,52.13
2023-03-10T22:38:44.323Z,51.97
2023-03-10T22:41:13.816Z,52.00
2023-03-10T22:43:43.086Z,52.14
2023-03-10T22:46:17.112Z,52.30
2023-03-10T22:48:46.296Z,52.15
2023-03-10T22:51:18.831Z,52.19
2023-03-10T22:53:47.835Z,52.18
2023-03-10T22:56:16.949Z,52.19
2023-03-10T22:58:45.729Z,52.21
2023-03-10T23:01:15.258Z,52.46
2023-03-10T23:03:44.935Z,52.40
2023-03-10T23:06:17.174Z,52.50
2023-03-10T23:08:47.479Z,52.16
2023-03-10T23:11:16.572Z,52.47
2023-03-10T23:13:45.580Z,52.36
2023-03-10T23:16:14.426Z,52.39
2023-03-10T23:18:43.536Z,52.73
2023-03-10T23:21:15.372Z,52.42
2023-03-10T23:23:44.589Z,52.44
2023-03-10T23:26:16.465Z,52.34
2023-03-10T23:28:45.382Z,52.36
2023-03-10T23:31:17.852Z,52.49
2023-03-10T23:33:50.110Z,52.42
2023-03-10T23:36:19.168Z,52.51
2023-03-10T23:38:48.103Z,52.55
2023-03-10T23:41:20.035Z,52.33
2023-03-10T23:43:49.500Z,52.23
2023-03-10T23:46:19.011Z,52.22
2023-03-10T23:48:49.224Z,52.36
2023-03-10T23:51:18.292Z,52.52
2023-03-10T23:53:47.461Z,52.20
2023-03-10T23:56:16.276Z,52.14
2023-03-10T23:58:45.126Z,51.99
